Mesquite, Nevada Weather observations

Data are for observation ending at time listed.
 Day   Time    Ave.   Ave.  Ave.  Vector   Max.   Stn.    Total    Solar   Ave.  
  of    of     Air    Rel.  Wind   Wind    Wind   Baro.  Precip.   Rad.    Soil  
Year   Day     Temp.  Hum.  Speed  Dir.    Gust   Pres.                    Temp. 
2014   (PST)    F      %     mph   deg.    mph     mb.     in.     W/m2     F   
------------------------------------------------------------------------------
 238   13:30   94.4    21    9.7   239     18.3   948.3    0.00     614    100.7
 238   13:40   94.4    21   10.8   239     19.9   948.1    0.00     593    101.1
 238   13:50   94.4    20   12.3   241     23.7   948.0    0.00     589    101.6
 238   14:00   95.0    16   11.3   224     22.6   947.9    0.00     588    102.0
 238   14:10   95.3    16   10.5   234     18.9   947.8    0.00     554    102.3
 238   14:20   95.3    17    9.5   228     23.6   947.7    0.00     550    102.7
 238   14:30   95.9    17    9.5   224     22.4   947.6    0.00     525    103.0
 238   14:40   95.4    16   10.3   230     26.6   947.5    0.00     505    103.3
 238   14:50   95.6    16    9.9   225     20.0   947.5    0.00     465    103.5
 238   15:00   95.5    16    9.8   227     20.3   947.4    0.00     502    103.7
 238   15:10   95.7    16    8.9   218     17.8   947.4    0.00     407    103.9
 238   15:20   95.2    16    9.1   222     21.0   947.5    0.00     335    104.1
 238   15:30   95.6    16    7.7   216     15.1   947.5    0.00     384    104.2
 238   15:40   96.6    16    5.9   195     14.2   947.5    0.00     295    104.3
 238   15:50   93.9    17    7.6   189     17.1   947.4    0.00      45    104.3
 238   16:00   93.3    17    8.5   217     18.5   947.4    0.00     113    104.3
 238   16:10   95.0    17    6.4   194     17.8   947.3    0.00     262    104.0
 238   16:20   95.5    16    6.5   209     18.9   947.2    0.00     210    103.8
 238   16:30   94.1    18    6.1   216     14.8   947.1    0.00      51    103.6
 238   16:40   93.2    18    6.6   217     13.8   947.1    0.00      48    103.4
 238   16:50   94.0    17    5.7   211     14.0   947.1    0.00     165    103.1
 238   17:00   95.0    17    6.7   203     15.6   947.0    0.00     185    102.9
 238   17:10   95.1    17    4.8   209     12.7   947.0    0.00     106    102.7
 238   17:20   93.7    19    6.2   215     15.0   947.0    0.00      84    102.5
 238   17:30   93.0    19    6.8   206     18.9   946.8    0.00      28    102.3
 238   17:40   92.6    18    5.5   192     15.6   946.9    0.00      34    102.1
 238   17:50   92.4    18    6.5   201     16.4   946.9    0.00      23    101.8
 238   18:00   92.0    18    4.5   202     11.5   947.0    0.00      14    101.4
 238   18:10   91.5    19    3.9   190      9.2   947.2    0.00      11    101.1
 238   18:20   91.2    20    3.9   207     11.8   947.4    0.00       4    100.8
 238   18:30   91.2    20    5.1   212     14.6   947.5    0.00       3    100.5
 238   18:40   90.8    20    3.9   208     12.3   947.8    0.00       2    100.2
 238   18:50   90.4    20    7.7   278     17.5   948.6    0.00       1    99.9
 238   19:00   84.1    26   14.9   331     35.2   949.3    0.00       0    99.6
 238   19:10   79.6    32   23.4   354     36.8   949.6    0.00       0    99.3
 238   19:20   78.7    33   16.5   352     30.7   950.0    0.00       1    99.0
 238   19:30   77.9    34   15.7     5     36.7   950.1    0.00       1    98.7
 238   19:40   78.1    33   13.8    34     23.0   950.7    0.00       1    98.4
 238   19:50   80.1    30   13.1     8     21.7   950.7    0.00       1    98.1
 238   20:00   82.0    27   12.4    52     20.0   950.9    0.00       1    97.8
 238   20:10   82.1    27   13.1    57     22.8   951.0    0.00       1    97.5
 238   20:20   82.0    26   13.6    46     19.5   951.1    0.00       1    97.2
 238   20:30   81.8    26   14.0    40     22.6   951.0    0.00       1    97.0
 238   20:40   81.6    26   14.4    36     23.3   950.9    0.00       1    96.7
 238   20:50   81.5    26   15.2    35     25.4   950.8    0.00       1    96.5
 238   21:00   81.4    26   12.0    31     19.3   950.8    0.00       0    96.2
 238   21:10   80.8    28   10.1    32     16.1   950.8    0.00       1    96.0
 238   21:20   79.1    31    8.1    41     12.2   950.9    0.00       1    95.8
 238   21:30   79.1    30    8.8    39     13.5   951.1    0.00       1    95.6
 238   21:40   79.5    29    8.4    36     12.3   951.3    0.00       2    95.4
 238   21:50   79.7    28    9.1    34     16.9   951.3    0.00       1    95.2
 238   22:00   79.5    29    8.0    22     12.0   951.3    0.00       1    94.9
 238   22:10   78.9    30   10.3     6     18.0   951.4    0.00       1    94.7
 238   22:20   78.7    31   10.2     5     19.1   951.5    0.00       0    94.5
 238   22:30   78.7    31    9.8   359     19.4   951.6    0.00       1    94.3
 238   22:40   78.5    32    9.2     1     17.2   951.7    0.00       0    94.1
 238   22:50   78.1    32   11.0     4     18.1   951.8    0.00       0    93.9
 238   23:00   77.8    33   10.2     6     17.9   951.8    0.00       1    93.7
 238   23:10   77.6    33    8.6     3     14.1   952.0    0.00       0    93.5
 238   23:20   77.6    33    7.2     1     13.6   951.9    0.00       0    93.3
 238   23:30   77.4    34    5.9   354     12.0   951.9    0.00       0    93.1
 238   23:40   77.2    34    3.8   252      6.4   952.0    0.00       0    92.9
 238   23:50   77.5    33    5.6   317     10.4   952.1    0.00       0    92.8
 239    0:00   77.5    33    6.2   319     10.7   952.1    0.00       0    92.6
 239    0:10   77.3    33    5.8   318     10.6   952.2    0.00       0    92.4
 239    0:20   77.2    33    8.4   354     14.2   952.4    0.00       0    92.2
 239    0:30   77.0    33   10.7   356     18.1   952.5    0.00       1    92.0
 239    0:40   76.5    35   11.8     8     17.8   952.5    0.00       1    91.9
 239    0:50   75.9    36    9.9    18     16.1   952.5    0.00       1    91.7
 239    1:00   75.8    37    8.5    30     14.2   952.5    0.00       1    91.6
 239    1:10   75.5    38    6.3    40     11.0   952.5    0.00       0    91.4
 239    1:20   74.9    39    3.5    42      6.5   952.5    0.00       1    91.3
 239    1:30   75.1    40    3.7   350      8.5   952.5    0.00       0    91.1
 239    1:40   74.9    40    5.1     8      9.4   952.4    0.00       0    91.0
 239    1:50   74.8    40    6.1    13      8.7   952.4    0.00       1    90.9
 239    2:00   74.9    40    7.1     4     11.5   952.5    0.00       1    90.7
 239    2:10   75.0    40    6.8   357     13.1   952.6    0.00       0    90.6
 239    2:20   74.9    40    6.8   346     11.6   952.6    0.00       0    90.5
 239    2:30   74.8    40    9.0   355     16.5   952.6    0.00       0    90.3
 239    2:40   74.6    40   10.3    10     17.3   952.6    0.00       0    90.2
 239    2:50   74.4    41    9.2    22     15.5   952.8    0.00       0    90.1
 239    3:00   72.8    44    4.4    68     11.5   952.9    0.00       0    89.9
 239    3:10   72.7    45    3.5     5      9.9   953.0    0.00       0    89.8
 239    3:20   73.5    44    7.3   356     12.1   952.9    0.00       0    89.6
 239    3:30   73.5    44    8.8   357     14.3   952.9    0.00       0    89.5
 239    3:40   73.3    44    7.8   358     13.7   953.1    0.00       0    89.4
 239    3:50   73.2    43    8.6   341     13.4   953.2    0.00       0    89.2
 239    4:00   73.0    43    8.0   356     13.1   953.3    0.00       1    89.1
 239    4:10   72.7    44    7.6   356     14.2   953.3    0.00       1    89.0
 239    4:20   72.7    43    7.5   356     12.8   953.4    0.00       0    88.8
 239    4:30   72.5    44    8.0     8     13.7   953.6    0.00       1    88.7
 239    4:40   72.2    45    7.3    13     11.5   953.7    0.00       0    88.6
 239    4:50   72.1    45    7.7     7     11.9   953.9    0.00       1    88.5
 239    5:00   72.1    46    9.2     2     14.6   954.0    0.00       3    88.4
 239    5:10   71.6    47    9.2    21     13.9   954.2    0.00       3    88.2
 239    5:20   71.1    48    7.0    34     11.6   954.4    0.00       7    88.1
 239    5:30   71.0    48    5.9    36      8.9   954.4    0.00      11    88.0
 239    5:40   71.6    48    4.5    28      8.0   954.5    0.00      30    87.9
 239    5:50   72.5    47    4.5    29      6.9   954.6    0.00      54    87.7
 239    6:00   73.3    46    4.1    21      7.0   954.7    0.00      75    87.6
 239    6:10   73.9    44    4.5    17      7.0   954.7    0.00      96    87.5
 239    6:20   74.7    43    5.3    24      8.2   954.8    0.00     119    87.4
 239    6:30   75.5    42    5.6    31      9.1   954.8    0.00     143    87.3
 239    6:40   76.1    41    4.4    51      7.2   954.8    0.00     168    87.3
 239    6:50   75.7    41    4.4    78      5.5   954.9    0.00     192    87.2
 239    7:00   76.0    41    4.2    82      5.6   955.0    0.00     218    87.2
 239    7:10   76.5    40    3.7    80      4.9   955.1    0.00     243    87.1
 239    7:20   77.3    39    3.3    51      4.9   955.2    0.00     267    87.1
 239    7:30   78.2    37    3.4    67      5.3   955.3    0.00     293    87.1
 239    7:40   78.7    36    3.1    82      5.6   955.3    0.00     317    87.0
 239    7:50   79.7    35    2.5    98      5.5   955.3    0.00     341    87.0
 239    8:00   80.7    34    2.1   117      4.5   955.3    0.00     365    87.0
 239    8:10   81.6    33    1.7    97      5.0   955.4    0.00     387    87.0
 239    8:20   82.3    32    2.1   102      4.9   955.4    0.00     409    87.0
 239    8:30   83.2    31    1.7   112      4.9   955.5    0.00     431    87.0
 239    8:40   82.9    31    3.4    85      7.2   955.5    0.00     452    87.1
 239    8:50   82.9    32    3.1    90      6.4   955.6    0.00     472    87.1
 239    9:00   83.7    31    3.1    92      8.6   955.6    0.00     490    87.2
 239    9:10   84.1    31    4.2   118      8.0   955.5    0.00     509    87.3
 239    9:20   84.2    31    4.7    98      8.4   955.6    0.00     527    87.4
 239    9:30   85.0    30    4.8   112      9.1   955.5    0.00     543    87.5
 239    9:40   85.4    29    4.2    88      7.5   955.4    0.00     559    87.7
 239    9:50   86.5    28    2.0    93      6.1   955.4    0.00     574    87.9
 239   10:00   87.3    27    3.7    91      9.3   955.3    0.00     588    88.2
 239   10:10   87.3    28    3.9    97      8.4   955.2    0.00     600    88.6
 239   10:20   87.6    27    5.0   116      9.2   955.1    0.00     611    89.0
 239   10:30   88.1    27    5.4   131      8.8   955.0    0.00     620    89.4
 239   10:40   88.8    26    3.7   130      8.6   954.8    0.00     629    90.0
 239   10:50   89.6    26    3.7   150      7.5   954.7    0.00     638    90.6
 239   11:00   90.4    25    3.8   135      8.8   954.6    0.00     644    91.3
 239   11:10   90.2    26    4.1   189      7.6   954.5    0.00     651    92.0
 239   11:20   89.5    26    3.0   241      5.5   954.4    0.00     653    92.7
 239   11:30   89.7    26    3.6   199      6.4   954.2    0.00     658    93.4
 239   11:40   91.2    25    1.4   202      6.2   954.1    0.00     658    94.2
 239   11:50   92.7    24    3.7   143      6.9   954.0    0.00     659    94.9
 239   12:00   91.9    25    2.8   160      6.0   953.9    0.00     659    95.6
 239   12:10   92.3    25    2.1   166      5.7   953.8    0.00     658    96.4
 239   12:20   93.0    24    2.4   206      6.9   953.6    0.00     654    97.0
 239   12:30   92.8    25    2.8   270      5.9   953.5    0.00     648    97.7
 239   12:40   91.7    25    4.2   274      7.7   953.4    0.00     640    98.4
 239   12:50   92.9    24    4.1   280      7.0   953.3    0.00     634    99.0
 239   13:00   93.1    23    2.6   199      4.9   953.2    0.00     626    99.6
 239   13:10   93.0    22    4.6   284      8.3   953.0    0.00     619    100.2
 239   13:20   93.7    20    2.8   356      5.8   952.8    0.00     606    100.8

Return to Mesquite, Nevada graphs page.


Western Regional Climate Center,wrcc@dri.edu